Site contains unofficial IBTrACS data. Visit the IBTrACS Website to access archived data.

1960 Tropical Cyclone NOT_NAMED (1960022S15124)


IBTrACS version v04r00. Visit IBTrACS website for data access.
Please direct all questions to the IBTrACS Q and A forum

Storm track - Intensity - Wind Radii - Intensity Data - Source Data - All data

Summary Information

Storm ID 1960022S15124
Start Jan 22 01Z
Max Intensity 60 kt (Jan 24 00Z), 980 mb (Jan 23 23Z)
End Jan 29 23Z
ATCF IDs ,SH101960
Track status Best track data.

Storm track plot

Map of storm track

Intensity plots

Map of storm track

Radial wind information

No radial wind information for this storm


Position and Intensity Table

BASIN ISO_TIME_________ NATURE LAT LON WMO PRES BOM PRES DS824 WIND DS824 PRES
degrees north degrees east mb mb kts mb
SI 1960-01-22 01:00:00 NR -14.50 124.00 1000 1000
SI 03:00:00 NR -14.37 123.87 1000
SI 06:00:00 NR -14.16 123.73 1000
SI 08:00:00 NR -14.00 123.70 1000 1000
SI 09:00:00 NR -13.92 123.71 999
SI 12:00:00 NR -13.66 123.83 999
SI 15:00:00 NR -13.44 124.04 999
SI 18:00:00 TS -13.33 124.23 999 30 999
SI 19:00:00 TS -13.34 124.29 999 999 33 997
SI 21:00:00 TS -13.36 124.38 995 40 993
SI 23:00:00 TS -13.50 124.45 991 46 989
SI 1960-01-23 00:00:00 TS -13.68 124.46 989 50 988
SI 01:00:00 TS -13.80 124.52 988 988
SI 03:00:00 TS -13.92 124.66
SI 06:00:00 TS -14.05 124.83
SI 09:00:00 TS -14.17 124.91
SI 11:00:00 TS -14.23 124.92
SI 12:00:00 TS -14.24 124.91
SI 14:00:00 TS -14.25 124.87 984 984
SI 15:00:00 TS -14.24 124.85 983
SI 18:00:00 TS -14.20 124.71 982
SI 21:00:00 TS -14.16 124.52 981
SI 23:00:00 TS -14.15 124.36 980
SI 1960-01-24 00:00:00 TS -14.14 124.28 980 60 980
SI 01:00:00 TS -13.94 124.32 980 980 60 980
SI 03:00:00 TS -13.66 124.29 60 980
SI 06:00:00 TS -13.36 124.11 60 980
SI 07:00:00 TS -12.95 124.21 980
SI 09:00:00 TS -13.04 123.99
SI 11:00:00 TS -13.20 123.79
SI 12:00:00 TS -13.29 123.71 980
SI 15:00:00 TS -13.64 123.50
SI 18:00:00 TS -14.07 123.30
SI 21:00:00 TS -14.52 123.07
SI 23:00:00 TS -14.83 122.90
SI 1960-01-25 00:00:00 TS -14.99 122.80
SI 01:00:00 TS -15.14 122.70 980
SI 03:00:00 TS -15.45 122.48
SI 06:00:00 TS -15.91 122.09
SI 09:00:00 TS -16.38 121.63
SI 11:00:00 TS -16.67 121.29
SI 12:00:00 TS -16.81 121.11
SI 15:00:00 TS -17.18 120.58
SI 18:00:00 TS -17.49 120.02
SI 21:00:00 TS -17.76 119.46
SI 23:00:00 TS -17.92 119.09
SI 1960-01-26 00:00:00 TS -18.00 118.91
SI 01:00:00 TS -18.07 118.73 988
SI 03:00:00 TS -18.22 118.36
SI 06:00:00 TS -18.41 117.82
SI 09:00:00 TS -18.57 117.28
SI 11:00:00 TS -18.67 116.42
SI 12:00:00 TS -18.70 115.89
SI 15:00:00 TS -18.79 115.12
SI 18:00:00 TS -18.84 114.51
SI 21:00:00 TS -18.85 114.16
SI 23:00:00 TS -18.85 113.98
SI 1960-01-27 00:00:00 TS -18.84 113.92 45 990
SI 01:00:00 TS -18.83 113.87 990 990
SI 03:00:00 TS -18.82 113.82
SI 06:00:00 TS -18.79 113.80
SI 09:00:00 TS -18.78 113.78
SI 11:00:00 TS -18.78 113.76
SI 12:00:00 TS -18.77 113.74
SI 15:00:00 TS -18.75 113.63
SI 18:00:00 TS -18.72 113.51
SI 21:00:00 TS -18.72 113.43
SI 23:00:00 TS -18.74 113.37
SI 1960-01-28 00:00:00 TS -18.76 113.33 45 992
SI 01:00:00 TS -18.78 113.27 992 992
SI 03:00:00 TS -18.80 113.19
SI 06:00:00 TS -18.81 113.10
SI 09:00:00 TS -18.85 113.04
SI 11:00:00 TS -18.89 113.01
SI 12:00:00 TS -18.90 112.99
SI 15:00:00 TS -18.95 112.93
SI 18:00:00 TS -19.01 112.88
SI 21:00:00 TS -19.09 112.82
SI 23:00:00 TS -19.17 112.80
SI 1960-01-29 00:00:00 TS -19.21 112.80
SI 03:00:00 TS -19.40 112.83
SI 06:00:00 TS -19.58 112.92
SI 09:00:00 TS -19.71 113.08
SI 11:00:00 TS -19.78 113.22
SI 12:00:00 TS -19.82 113.29
SI 15:00:00 TS -19.92 113.50
SI 18:00:00 TS -20.01 113.73
SI 21:00:00 NR -20.07 114.01
SI 23:00:00 NR -20.10 114.20

Source Information

Agency Information
USA bsh101960.txt
TOKYO
CMA
HKO
NEWDELHI
REUNION
BOM IDCKMSTM0S.csv:Line=2961:unnamed
NADI
WELLINGTON
DS824 aus_area.dat:285:NOT NAMED
TD9636 cons_worldwide_trop_cyclone_18710101-19891231-006:Line=5569
TD9635
NEUMANN
MLC

All available IBTrACS Data

SEASON BASIN SUBBASIN ISO_TIME_________ NATURE LAT LON WMO PRES WMO AGENCY DIST2LAND LANDFALL IFLAG USA AGENCY USA ATCF_ID USA LAT USA LON USA SSHS BOM LAT BOM LON BOM PRES BOM PRES_METHOD DS824 LAT DS824 LON DS824 STAGE DS824 WIND DS824 PRES TD9636 LAT TD9636 LON TD9636 STAGE STORM SPEED STORM DIR
Year degrees north degrees east mb km km degrees north degrees east 1 degrees north degrees east mb degrees north degrees east kts mb degrees north degrees east kts degrees
1960 SI WA 1960-01-22 01:00:00 NR -14.50 124.00 1000 bom 116 116 ______O_______ -1 -14.50 124.00 1000 5 317
1960 SI WA 03:00:00 NR -14.37 123.87 131 131 ______P_______ -1 -14.37 123.87 1000 5 323
1960 SI WA 06:00:00 NR -14.16 123.73 162 170 ______P_______ -1 -14.16 123.73 1000 5 335
1960 SI WA 08:00:00 NR -14.00 123.70 1000 bom 175 175 ______O_______ -1 -14.00 123.70 1000 5 0
1960 SI WA 09:00:00 NR -13.92 123.71 179 175 ______P_______ -1 -13.92 123.71 999 5 21
1960 SI WA 12:00:00 NR -13.66 123.83 181 178 ______P_______ -1 -13.66 123.83 999 6 33
1960 SI WA 15:00:00 NR -13.44 124.04 186 172 ______P_______ -1 -13.44 124.04 999 5 50
1960 SI WA 18:00:00 TS -13.33 124.23 181 175 ______P__O____ -1 -13.31 124.24 999 -13.40 124.20 TC 30 999 4 67
1960 SI WA 19:00:00 TS -13.34 124.29 999 bom 175 159 ______O__P____ -1 -13.30 124.30 999 -13.41 124.26 TC 33 997 3 102
1960 SI WA 21:00:00 TS -13.36 124.38 159 150 ______P__P____ -1 -13.31 124.39 995 -13.43 124.38 TC 40 993 3 137
1960 SI WA 23:00:00 TS -13.50 124.45 150 125 ______P__PO___ -1 -13.38 124.46 991 -13.47 124.47 TC 46 989 -14.10 124.30 1 7 166
1960 SI WA 1960-01-23 00:00:00 TS -13.68 124.46 125 117 O_____P__OP___ jtwc_sh SH101960 -14.10 124.40 -1 -13.44 124.49 989 -13.50 124.50 TC 50 988 -14.12 124.42 1 9 166
1960 SI WA 01:00:00 TS -13.80 124.52 988 bom 117 95 P_____O__PP___ SH101960 -14.10 124.53 -1 -13.50 124.50 988 -13.54 124.52 TC -14.13 124.53 1 6 141
1960 SI WA 03:00:00 TS -13.92 124.66 95 79 P_____P__PP___ SH101960 -14.10 124.78 -1 -13.66 124.50 -13.66 124.53 TC -14.15 124.76 1 5 129
1960 SI WA 06:00:00 TS -14.05 124.83 79 55 O_____P__PP___ jtwc_sh SH101960 -14.10 125.10 -1 -13.99 124.44 -13.90 124.47 TC -14.15 125.06 1 4 136
1960 SI WA 09:00:00 TS -14.17 124.91 55 55 P_____P__PP___ SH101960 -14.09 125.30 -1 -14.38 124.32 -14.19 124.34 TC -14.09 125.29 1 2 156
1960 SI WA 11:00:00 TS -14.23 124.92 55 55 P_____P__PO___ SH101960 -14.04 125.38 -1 -14.64 124.20 -14.40 124.22 TC -14.00 125.40 1 2 190
1960 SI WA 12:00:00 TS -14.24 124.91 55 46 O_____P__PP___ jtwc_sh SH101960 -14.00 125.40 -1 -14.77 124.14 -14.51 124.15 TC -13.94 125.43 1 1 232
1960 SI WA 14:00:00 TS -14.25 124.87 984 bom 55 55 P_____O__PP___ SH101960 -13.86 125.45 -1 -15.00 124.00 984 -14.74 124.01 TC -13.79 125.47 1 1 274
1960 SI WA 15:00:00 TS -14.24 124.85 62 62 P_____P__PP___ SH101960 -13.77 125.45 -1 -15.09 123.94 983 -14.85 123.93 TC -13.71 125.46 1 2 289
1960 SI WA 18:00:00 TS -14.20 124.71 70 70 O_____P__PP___ jtwc_sh SH101960 -13.50 125.40 -1 -15.34 123.72 982 -15.17 123.68 TC -13.45 125.40 1 3 284
1960 SI WA 21:00:00 TS -14.16 124.52 87 87 P_____P__PP___ SH101960 -13.28 125.25 -1 -15.55 123.47 981 -15.46 123.43 TC -13.21 125.24 1 4 278
1960 SI WA 23:00:00 TS -14.15 124.36 102 106 P_____P__PO___ SH101960 -13.15 125.09 -1 -15.68 123.29 980 -15.63 123.28 TC -13.10 125.10 1 5 275
1960 SI WA 1960-01-24 00:00:00 TS -14.14 124.28 111 111 O_____P__OP___ jtwc_sh SH101960 -13.10 125.00 -1 -15.74 123.20 980 -15.70 123.20 TC 60 980 -13.06 125.02 1 6 351
1960 SI WA 01:00:00 TS -13.94 124.32 980 bom 124 124 P_____O__PP___ SH101960 -13.04 124.90 -1 -15.80 123.10 980 4 -15.76 123.14 TC 60 980 -13.02 124.93 1 10 3
1960 SI WA 03:00:00 TS -13.66 124.29 139 139 P________PP___ SH101960 -12.94 124.66 -1 -15.86 123.01 TC 60 980 -12.97 124.72 1 7 341
1960 SI WA 06:00:00 TS -13.36 124.11 179 187 O________OP___ jtwc_sh SH101960 -12.90 124.30 -1 -16.00 122.80 TC 60 980 -12.97 124.38 1 11 354
1960 SI WA 07:00:00 TS -12.95 124.21 980 bom 217 214 P_________P___ SH101960 -12.92 124.19 -1 TC -12.99 124.26 1 7 339
1960 SI WA 09:00:00 TS -13.04 123.99 221 212 P_________P___ SH101960 -13.02 123.98 -1 TC -13.07 124.02 1 7 239
1960 SI WA 11:00:00 TS -13.20 123.79 217 217 P_________O___ SH101960 -13.19 123.79 -1 TC -13.20 123.80 2 8 228
1960 SI WA 12:00:00 TS -13.29 123.71 980 bom 217 210 O_________P___ jtwc_sh SH101960 -13.30 123.70 -1 TC -13.28 123.72 2 8 213
1960 SI WA 15:00:00 TS -13.64 123.50 214 203 P_________P___ SH101960 -13.66 123.49 -1 TC -13.60 123.51 2 9 207
1960 SI WA 18:00:00 TS -14.07 123.30 203 186 O_________P___ jtwc_sh SH101960 -14.10 123.30 -1 TC -14.01 123.30 2 10 205
1960 SI WA 21:00:00 TS -14.52 123.07 186 178 P_________P___ SH101960 -14.54 123.07 -1 TC -14.48 123.08 2 10 207
1960 SI WA 23:00:00 TS -14.83 122.90 178 165 P_________O___ SH101960 -14.85 122.90 -1 TC -14.80 122.90 1 11 210
1960 SI WA 1960-01-25 00:00:00 TS -14.99 122.80 165 158 O_________P___ jtwc_sh SH101960 -15.00 122.80 -1 TC -14.96 122.80 1 11 212
1960 SI WA 01:00:00 TS -15.14 122.70 980 bom 158 130 P_________P___ SH101960 -15.15 122.70 -1 TC -15.12 122.69 1 11 214
1960 SI WA 03:00:00 TS -15.45 122.48 130 108 P_________P___ SH101960 -15.45 122.49 -1 TC -15.45 122.45 1 12 217
1960 SI WA 06:00:00 TS -15.91 122.09 108 100 O_________P___ jtwc_sh SH101960 -15.90 122.10 -1 TC -15.94 122.06 1 12 221
1960 SI WA 09:00:00 TS -16.38 121.63 108 108 P_________P___ SH101960 -16.36 121.63 -1 TC -16.42 121.62 1 13 225
1960 SI WA 11:00:00 TS -16.67 121.29 115 115 P_________O___ SH101960 -16.66 121.28 -1 TC -16.70 121.30 2 13 229
1960 SI WA 12:00:00 TS -16.81 121.11 129 125 O_________P___ jtwc_sh SH101960 -16.80 121.10 -1 TC -16.83 121.14 2 13 233
1960 SI WA 15:00:00 TS -17.18 120.58 165 173 P_________P___ SH101960 -17.18 120.56 -1 TC -17.18 120.61 2 13 237
1960 SI WA 18:00:00 TS -17.49 120.02 217 217 O_________P___ jtwc_sh SH101960 -17.50 120.00 -1 TC -17.48 120.06 2 12 241
1960 SI WA 21:00:00 TS -17.76 119.46 246 243 P_________P___ SH101960 -17.77 119.45 -1 TC -17.74 119.48 2 12 244
1960 SI WA 23:00:00 TS -17.92 119.09 246 235 P_________O___ SH101960 -17.93 119.08 -1 TC -17.90 119.10 1 12 246
1960 SI WA 1960-01-26 00:00:00 TS -18.00 118.91 235 225 O_________P___ jtwc_sh SH101960 -18.00 118.90 -1 TC -17.99 118.92 1 11 246
1960 SI WA 01:00:00 TS -18.07 118.73 988 bom 227 221 P_________P___ SH101960 -18.07 118.72 -1 TC -18.07 118.74 1 11 247
1960 SI WA 03:00:00 TS -18.22 118.36 224 218 P_________P___ SH101960 -18.21 118.35 -1 TC -18.22 118.39 1 11 249
1960 SI WA 06:00:00 TS -18.41 117.82 225 214 O_________P___ jtwc_sh SH101960 -18.40 117.80 -1 TC -18.43 117.85 1 11 251
1960 SI WA 09:00:00 TS -18.57 117.28 218 212 P_________P___ SH101960 -18.56 117.28 -1 TC -18.61 117.29 1 16 259
1960 SI WA 11:00:00 TS -18.67 116.42 214 216 P_________O___ SH101960 -18.65 116.91 -1 TC -18.70 116.90 1 26 265
1960 SI WA 12:00:00 TS -18.70 115.89 228 232 O_________P___ jtwc_sh SH101960 -18.70 116.70 -1 TC -18.75 116.67 1 19 264
1960 SI WA 15:00:00 TS -18.79 115.12 261 261 P_________P___ SH101960 -18.87 115.94 -1 TC -18.86 115.95 1 13 264
1960 SI WA 18:00:00 TS -18.84 114.51 294 294 O_________P___ jtwc_sh SH101960 -19.00 115.20 -1 TC -18.94 115.23 1 9 266
1960 SI WA 21:00:00 TS -18.85 114.16 303 309 P_________P___ SH101960 -19.03 114.60 -1 TC -18.99 114.62 1 6 269
1960 SI WA 23:00:00 TS -18.85 113.98 324 324 P_________O___ SH101960 -19.01 114.31 -1 TC -19.00 114.30 1 5 273
1960 SI WA 1960-01-27 00:00:00 TS -18.84 113.92 331 331 O________OP___ jtwc_sh SH101960 -19.00 114.20 -1 -18.60 113.50 TC 45 990 -19.00 114.20 1 3 277
1960 SI WA 01:00:00 TS -18.83 113.87 990 bom 331 331 P_____O__PP___ SH101960 -18.99 114.12 -1 -18.60 113.50 990 -18.61 113.45 TC -19.01 114.11 1 2 285
1960 SI WA 03:00:00 TS -18.82 113.82 338 338 P_____P__PP___ SH101960 -18.95 114.03 -1 -18.61 113.42 -18.62 113.36 TC -19.00 114.00 1 1 306
1960 SI WA 06:00:00 TS -18.79 113.80 338 338 O_____P__PP___ jtwc_sh SH101960 -18.90 114.00 -1 -18.62 113.33 -18.64 113.28 TC -18.97 113.94 1 1 312
1960 SI WA 09:00:00 TS -18.78 113.78 338 338 P_____P__PP___ SH101960 -18.90 113.97 -1 -18.63 113.29 -18.65 113.24 TC -18.93 113.92 1 0 290
1960 SI WA 11:00:00 TS -18.78 113.76 338 338 P_____P__PO___ SH101960 -18.90 113.93 -1 -18.63 113.28 -18.65 113.24 TC -18.90 113.90 1 1 281
1960 SI WA 12:00:00 TS -18.77 113.74 345 345 O_____P__PP___ jtwc_sh SH101960 -18.90 113.90 -1 -18.63 113.29 -18.64 113.25 TC -18.89 113.85 1 2 283
1960 SI WA 15:00:00 TS -18.75 113.63 360 360 P_____P__PP___ SH101960 -18.85 113.71 -1 -18.63 113.31 -18.64 113.28 TC -18.86 113.70 1 2 283
1960 SI WA 18:00:00 TS -18.72 113.51 361 361 O_____P__PP___ jtwc_sh SH101960 -18.80 113.50 -1 -18.62 113.35 -18.63 113.34 TC -18.83 113.54 1 2 277
1960 SI WA 21:00:00 TS -18.72 113.43 363 363 P_____P__PP___ SH101960 -18.79 113.39 -1 -18.61 113.41 -18.61 113.42 TC -18.81 113.39 1 2 262
1960 SI WA 23:00:00 TS -18.74 113.37 363 354 P_____P__PO___ SH101960 -18.80 113.33 -1 -18.61 113.45 -18.60 113.47 TC -18.80 113.30 1 2 249
1960 SI WA 1960-01-28 00:00:00 TS -18.76 113.33 354 354 O_____P__OP___ jtwc_sh SH101960 -18.80 113.30 -1 -18.60 113.48 -18.60 113.50 TC 45 992 -18.80 113.26 1 3 245
1960 SI WA 01:00:00 TS -18.78 113.27 992 bom 354 354 P_____O___P___ SH101960 -18.80 113.26 -1 -18.60 113.50 992 TC -18.80 113.23 1 3 255
1960 SI WA 03:00:00 TS -18.80 113.19 356 356 P_________P___ SH101960 -18.79 113.19 -1 TC -18.81 113.17 1 2 261
1960 SI WA 06:00:00 TS -18.81 113.10 359 351 O_________P___ jtwc_sh SH101960 -18.80 113.10 -1 TC -18.83 113.10 1 1 249
1960 SI WA 09:00:00 TS -18.85 113.04 351 351 P_________P___ SH101960 -18.84 113.04 -1 TC -18.87 113.04 1 1 229
1960 SI WA 11:00:00 TS -18.89 113.01 351 351 P_________O___ SH101960 -18.88 113.01 -1 TC -18.90 113.00 2 1 218
1960 SI WA 12:00:00 TS -18.90 112.99 351 343 O_________P___ jtwc_sh SH101960 -18.90 113.00 -1 TC -18.91 112.97 2 1 232
1960 SI WA 15:00:00 TS -18.95 112.93 343 343 P_________P___ SH101960 -18.94 112.95 -1 TC -18.97 112.89 2 2 223
1960 SI WA 18:00:00 TS -19.01 112.88 343 337 O_________P___ jtwc_sh SH101960 -19.00 112.90 -1 TC -19.04 112.83 2 2 216
1960 SI WA 21:00:00 TS -19.09 112.82 337 326 P_________P___ SH101960 -19.08 112.84 -1 TC -19.13 112.80 2 2 205
1960 SI WA 23:00:00 TS -19.17 112.80 326 326 P_________O___ SH101960 -19.15 112.81 -1 TC -19.20 112.80 1 2 0
1960 SI WA 1960-01-29 00:00:00 TS -19.21 112.80 326 306 O_________P___ jtwc_sh SH101960 -19.20 112.80 -1 -19.24 112.81 1 3 173
1960 SI WA 03:00:00 TS -19.40 112.83 306 281 P_________P___ SH101960 -19.40 112.81 -1 -19.39 112.85 1 4 165
1960 SI WA 06:00:00 TS -19.58 112.92 281 263 O_________P___ jtwc_sh SH101960 -19.60 112.90 -1 -19.55 112.95 1 4 143
1960 SI WA 09:00:00 TS -19.71 113.08 263 249 P_________P___ SH101960 -19.72 113.08 -1 -19.71 113.08 1 4 125
1960 SI WA 11:00:00 TS -19.78 113.22 249 245 P_________O___ SH101960 -19.77 113.23 -1 -19.80 113.20 1 4 118
1960 SI WA 12:00:00 TS -19.82 113.29 245 229 O_________P___ jtwc_sh SH101960 -19.80 113.30 -1 -19.84 113.27 1 4 117
1960 SI WA 15:00:00 TS -19.92 113.50 229 214 P_________P___ SH101960 -19.90 113.51 -1 -19.94 113.49 1 5 115
1960 SI WA 18:00:00 TS -20.01 113.73 214 200 O_________P___ jtwc_sh SH101960 -20.00 113.70 -1 -20.01 113.74 1 5 107
1960 SI WA 21:00:00 NR -20.07 114.01 200 193 __________P___ SH101960 -1 -20.07 114.01 1 5 102
1960 SI WA 23:00:00 NR -20.10 114.20 193 __________O___ SH101960 -1 -20.10 114.20 1 5 101